sensor_id;sensor_type;location;lat;lon;timestamp;P1;durP1;ratioP1;P2;durP2;ratioP2
1350;SDS011;669;50.206;9.998;2023-05-07T00:01:25;1.70;;;1.60;;
1350;SDS011;669;50.206;9.998;2023-05-07T00:03:54;1.90;;;1.80;;
1350;SDS011;669;50.206;9.998;2023-05-07T00:06:22;1.67;;;1.63;;
1350;SDS011;669;50.206;9.998;2023-05-07T00:08:52;2.97;;;2.17;;
1350;SDS011;669;50.206;9.998;2023-05-07T00:11:20;1.87;;;1.77;;
1350;SDS011;669;50.206;9.998;2023-05-07T00:13:47;2.13;;;2.00;;
1350;SDS011;669;50.206;9.998;2023-05-07T00:16:15;2.00;;;1.90;;
1350;SDS011;669;50.206;9.998;2023-05-07T00:18:43;1.80;;;1.70;;
1350;SDS011;669;50.206;9.998;2023-05-07T00:21:13;2.43;;;1.60;;
1350;SDS011;669;50.206;9.998;2023-05-07T00:23:41;1.53;;;1.43;;
1350;SDS011;669;50.206;9.998;2023-05-07T00:26:09;2.20;;;2.10;;
1350;SDS011;669;50.206;9.998;2023-05-07T00:28:37;1.90;;;1.67;;
1350;SDS011;669;50.206;9.998;2023-05-07T00:31:05;1.90;;;1.80;;
1350;SDS011;669;50.206;9.998;2023-05-07T00:33:33;2.30;;;2.10;;
1350;SDS011;669;50.206;9.998;2023-05-07T00:36:01;2.40;;;2.27;;
1350;SDS011;669;50.206;9.998;2023-05-07T00:38:30;3.07;;;2.63;;
1350;SDS011;669;50.206;9.998;2023-05-07T00:40:58;3.10;;;2.80;;
1350;SDS011;669;50.206;9.998;2023-05-07T00:43:26;2.50;;;2.40;;
1350;SDS011;669;50.206;9.998;2023-05-07T00:45:54;2.20;;;2.10;;
1350;SDS011;669;50.206;9.998;2023-05-07T00:48:22;2.20;;;2.10;;
1350;SDS011;669;50.206;9.998;2023-05-07T00:50:50;2.30;;;2.20;;
1350;SDS011;669;50.206;9.998;2023-05-07T00:53:18;2.27;;;2.10;;
1350;SDS011;669;50.206;9.998;2023-05-07T00:55:48;2.07;;;1.97;;
1350;SDS011;669;50.206;9.998;2023-05-07T00:58:16;2.10;;;2.00;;
1350;SDS011;669;50.206;9.998;2023-05-07T01:00:44;2.20;;;2.00;;
1350;SDS011;669;50.206;9.998;2023-05-07T01:03:13;2.70;;;2.50;;
1350;SDS011;669;50.206;9.998;2023-05-07T01:05:41;3.13;;;2.40;;
1350;SDS011;669;50.206;9.998;2023-05-07T01:08:11;3.27;;;3.07;;
1350;SDS011;669;50.206;9.998;2023-05-07T01:10:40;2.90;;;2.70;;
1350;SDS011;669;50.206;9.998;2023-05-07T01:13:10;2.60;;;2.40;;
1350;SDS011;669;50.206;9.998;2023-05-07T01:15:40;3.00;;;2.80;;
1350;SDS011;669;50.206;9.998;2023-05-07T01:18:08;4.43;;;3.90;;
1350;SDS011;669;50.206;9.998;2023-05-07T01:20:36;3.50;;;3.20;;
1350;SDS011;669;50.206;9.998;2023-05-07T01:23:05;5.00;;;4.47;;
1350;SDS011;669;50.206;9.998;2023-05-07T01:25:34;5.30;;;4.80;;
1350;SDS011;669;50.206;9.998;2023-05-07T01:28:02;5.20;;;4.57;;
1350;SDS011;669;50.206;9.998;2023-05-07T01:30:31;4.50;;;4.20;;
1350;SDS011;669;50.206;9.998;2023-05-07T01:33:02;6.00;;;5.50;;
1350;SDS011;669;50.206;9.998;2023-05-07T01:35:35;5.10;;;4.60;;
1350;SDS011;669;50.206;9.998;2023-05-07T01:38:07;5.10;;;4.67;;
1350;SDS011;669;50.206;9.998;2023-05-07T01:40:36;5.23;;;4.83;;
1350;SDS011;669;50.206;9.998;2023-05-07T01:43:04;4.67;;;4.27;;
1350;SDS011;669;50.206;9.998;2023-05-07T01:45:34;4.70;;;4.30;;
1350;SDS011;669;50.206;9.998;2023-05-07T01:48:02;5.37;;;4.87;;
1350;SDS011;669;50.206;9.998;2023-05-07T01:50:31;5.57;;;5.17;;
1350;SDS011;669;50.206;9.998;2023-05-07T01:52:59;6.30;;;5.80;;
1350;SDS011;669;50.206;9.998;2023-05-07T01:55:30;5.63;;;5.13;;
1350;SDS011;669;50.206;9.998;2023-05-07T01:57:58;5.10;;;4.60;;
1350;SDS011;669;50.206;9.998;2023-05-07T02:00:26;5.23;;;4.83;;
1350;SDS011;669;50.206;9.998;2023-05-07T02:02:55;6.03;;;5.53;;
1350;SDS011;669;50.206;9.998;2023-05-07T02:05:24;6.20;;;5.70;;
1350;SDS011;669;50.206;9.998;2023-05-07T02:07:51;7.10;;;6.50;;
1350;SDS011;669;50.206;9.998;2023-05-07T02:10:19;6.90;;;6.30;;
1350;SDS011;669;50.206;9.998;2023-05-07T02:12:48;5.93;;;5.43;;
1350;SDS011;669;50.206;9.998;2023-05-07T02:15:16;6.63;;;6.03;;
1350;SDS011;669;50.206;9.998;2023-05-07T02:17:57;6.80;;;6.27;;
1350;SDS011;669;50.206;9.998;2023-05-07T02:20:26;6.07;;;5.67;;
1350;SDS011;669;50.206;9.998;2023-05-07T02:22:54;7.83;;;6.63;;
1350;SDS011;669;50.206;9.998;2023-05-07T02:25:22;7.67;;;6.90;;
1350;SDS011;669;50.206;9.998;2023-05-07T02:27:52;8.20;;;7.40;;
1350;SDS011;669;50.206;9.998;2023-05-07T02:30:20;7.63;;;6.93;;
1350;SDS011;669;50.206;9.998;2023-05-07T02:32:48;6.20;;;5.60;;
1350;SDS011;669;50.206;9.998;2023-05-07T02:35:16;6.63;;;6.03;;
1350;SDS011;669;50.206;9.998;2023-05-07T02:37:44;7.33;;;6.73;;
1350;SDS011;669;50.206;9.998;2023-05-07T02:40:12;5.67;;;5.27;;
1350;SDS011;669;50.206;9.998;2023-05-07T02:42:40;6.97;;;6.37;;
1350;SDS011;669;50.206;9.998;2023-05-07T02:45:10;6.90;;;6.30;;
1350;SDS011;669;50.206;9.998;2023-05-07T02:47:38;6.17;;;5.67;;
1350;SDS011;669;50.206;9.998;2023-05-07T02:50:06;5.60;;;5.17;;
1350;SDS011;669;50.206;9.998;2023-05-07T02:52:35;5.03;;;4.73;;
1350;SDS011;669;50.206;9.998;2023-05-07T02:55:03;5.60;;;5.17;;
1350;SDS011;669;50.206;9.998;2023-05-07T02:57:31;6.90;;;6.30;;
1350;SDS011;669;50.206;9.998;2023-05-07T02:59:59;6.87;;;6.27;;
1350;SDS011;669;50.206;9.998;2023-05-07T03:02:38;6.40;;;5.83;;
1350;SDS011;669;50.206;9.998;2023-05-07T03:05:06;7.33;;;6.73;;
1350;SDS011;669;50.206;9.998;2023-05-07T03:07:35;6.83;;;6.13;;
1350;SDS011;669;50.206;9.998;2023-05-07T03:10:03;6.37;;;5.73;;
1350;SDS011;669;50.206;9.998;2023-05-07T03:12:31;6.77;;;6.17;;
1350;SDS011;669;50.206;9.998;2023-05-07T03:14:59;7.63;;;6.93;;
1350;SDS011;669;50.206;9.998;2023-05-07T03:17:27;8.10;;;7.30;;
1350;SDS011;669;50.206;9.998;2023-05-07T03:19:56;8.03;;;7.33;;
1350;SDS011;669;50.206;9.998;2023-05-07T03:22:24;10.43;;;7.90;;
1350;SDS011;669;50.206;9.998;2023-05-07T03:24:52;8.10;;;7.30;;
1350;SDS011;669;50.206;9.998;2023-05-07T03:27:20;10.83;;;8.70;;
1350;SDS011;669;50.206;9.998;2023-05-07T03:29:47;9.93;;;8.87;;
1350;SDS011;669;50.206;9.998;2023-05-07T03:32:15;9.30;;;8.40;;
1350;SDS011;669;50.206;9.998;2023-05-07T03:34:43;8.23;;;7.50;;
1350;SDS011;669;50.206;9.998;2023-05-07T03:37:12;11.53;;;10.43;;
1350;SDS011;669;50.206;9.998;2023-05-07T03:39:40;12.53;;;11.33;;
1350;SDS011;669;50.206;9.998;2023-05-07T03:42:08;11.07;;;9.97;;
1350;SDS011;669;50.206;9.998;2023-05-07T03:44:36;12.13;;;10.73;;
1350;SDS011;669;50.206;9.998;2023-05-07T03:47:04;11.80;;;10.60;;
1350;SDS011;669;50.206;9.998;2023-05-07T03:49:32;9.40;;;8.50;;
1350;SDS011;669;50.206;9.998;2023-05-07T03:52:00;9.70;;;8.80;;
1350;SDS011;669;50.206;9.998;2023-05-07T03:54:29;9.97;;;9.07;;
1350;SDS011;669;50.206;9.998;2023-05-07T03:56:57;10.80;;;9.70;;
1350;SDS011;669;50.206;9.998;2023-05-07T03:59:25;10.93;;;9.83;;
1350;SDS011;669;50.206;9.998;2023-05-07T04:01:53;10.67;;;9.67;;
1350;SDS011;669;50.206;9.998;2023-05-07T04:04:21;9.80;;;8.80;;
1350;SDS011;669;50.206;9.998;2023-05-07T04:06:49;12.23;;;9.30;;
1350;SDS011;669;50.206;9.998;2023-05-07T04:09:17;11.30;;;10.00;;
1350;SDS011;669;50.206;9.998;2023-05-07T04:11:47;11.07;;;10.00;;
1350;SDS011;669;50.206;9.998;2023-05-07T04:14:15;10.97;;;9.93;;
1350;SDS011;669;50.206;9.998;2023-05-07T04:16:43;12.03;;;10.90;;
1350;SDS011;669;50.206;9.998;2023-05-07T04:19:11;11.97;;;10.77;;
1350;SDS011;669;50.206;9.998;2023-05-07T04:21:39;12.43;;;10.33;;
1350;SDS011;669;50.206;9.998;2023-05-07T04:24:07;11.03;;;10.03;;
1350;SDS011;669;50.206;9.998;2023-05-07T04:26:34;13.40;;;10.90;;
1350;SDS011;669;50.206;9.998;2023-05-07T04:29:04;11.93;;;10.03;;
1350;SDS011;669;50.206;9.998;2023-05-07T04:31:32;15.23;;;10.50;;
1350;SDS011;669;50.206;9.998;2023-05-07T04:34:00;11.40;;;10.30;;
1350;SDS011;669;50.206;9.998;2023-05-07T04:36:27;13.23;;;10.23;;
1350;SDS011;669;50.206;9.998;2023-05-07T04:38:55;12.30;;;11.00;;
1350;SDS011;669;50.206;9.998;2023-05-07T04:41:23;12.03;;;10.90;;
1350;SDS011;669;50.206;9.998;2023-05-07T04:43:51;11.17;;;10.07;;
1350;SDS011;669;50.206;9.998;2023-05-07T04:46:20;11.03;;;9.77;;
1350;SDS011;669;50.206;9.998;2023-05-07T04:48:48;14.70;;;10.13;;
1350;SDS011;669;50.206;9.998;2023-05-07T04:51:16;10.87;;;9.87;;
1350;SDS011;669;50.206;9.998;2023-05-07T04:53:44;11.60;;;10.03;;
1350;SDS011;669;50.206;9.998;2023-05-07T04:56:12;11.63;;;10.53;;
1350;SDS011;669;50.206;9.998;2023-05-07T04:58:40;10.93;;;9.93;;
1350;SDS011;669;50.206;9.998;2023-05-07T05:01:08;10.80;;;9.67;;
1350;SDS011;669;50.206;9.998;2023-05-07T05:03:37;10.63;;;9.53;;
1350;SDS011;669;50.206;9.998;2023-05-07T05:06:05;11.90;;;10.50;;
1350;SDS011;669;50.206;9.998;2023-05-07T05:08:33;9.53;;;8.70;;
1350;SDS011;669;50.206;9.998;2023-05-07T05:11:01;10.00;;;9.00;;
1350;SDS011;669;50.206;9.998;2023-05-07T05:13:29;9.67;;;8.77;;
1350;SDS011;669;50.206;9.998;2023-05-07T05:15:57;10.77;;;8.97;;
1350;SDS011;669;50.206;9.998;2023-05-07T05:18:25;8.87;;;8.07;;
1350;SDS011;669;50.206;9.998;2023-05-07T05:20:54;9.83;;;9.00;;
1350;SDS011;669;50.206;9.998;2023-05-07T05:23:22;9.57;;;8.67;;
1350;SDS011;669;50.206;9.998;2023-05-07T05:25:54;12.17;;;10.90;;
1350;SDS011;669;50.206;9.998;2023-05-07T05:28:23;10.77;;;9.60;;
1350;SDS011;669;50.206;9.998;2023-05-07T05:30:51;13.00;;;11.33;;
1350;SDS011;669;50.206;9.998;2023-05-07T05:33:19;10.70;;;9.60;;
1350;SDS011;669;50.206;9.998;2023-05-07T05:35:47;8.80;;;8.00;;
1350;SDS011;669;50.206;9.998;2023-05-07T05:38:18;10.73;;;9.53;;
1350;SDS011;669;50.206;9.998;2023-05-07T05:40:47;11.80;;;10.70;;
1350;SDS011;669;50.206;9.998;2023-05-07T05:43:14;11.73;;;10.60;;
1350;SDS011;669;50.206;9.998;2023-05-07T05:45:42;10.80;;;9.80;;
1350;SDS011;669;50.206;9.998;2023-05-07T05:48:10;12.80;;;10.80;;
1350;SDS011;669;50.206;9.998;2023-05-07T05:50:38;10.77;;;9.70;;
1350;SDS011;669;50.206;9.998;2023-05-07T05:53:06;13.37;;;9.97;;
1350;SDS011;669;50.206;9.998;2023-05-07T05:55:36;10.97;;;9.53;;
1350;SDS011;669;50.206;9.998;2023-05-07T05:58:04;9.97;;;8.97;;
1350;SDS011;669;50.206;9.998;2023-05-07T06:00:32;12.50;;;11.20;;
1350;SDS011;669;50.206;9.998;2023-05-07T06:03:00;14.70;;;11.37;;
1350;SDS011;669;50.206;9.998;2023-05-07T06:05:29;13.40;;;10.83;;
1350;SDS011;669;50.206;9.998;2023-05-07T06:07:57;11.27;;;10.10;;
1350;SDS011;669;50.206;9.998;2023-05-07T06:10:25;13.67;;;10.40;;
1350;SDS011;669;50.206;9.998;2023-05-07T06:12:54;12.27;;;10.07;;
1350;SDS011;669;50.206;9.998;2023-05-07T06:15:22;11.70;;;10.50;;
1350;SDS011;669;50.206;9.998;2023-05-07T06:17:50;10.20;;;9.20;;
1350;SDS011;669;50.206;9.998;2023-05-07T06:20:18;11.27;;;10.10;;
1350;SDS011;669;50.206;9.998;2023-05-07T06:22:46;12.00;;;10.80;;
1350;SDS011;669;50.206;9.998;2023-05-07T06:25:14;12.93;;;11.73;;
1350;SDS011;669;50.206;9.998;2023-05-07T06:27:42;11.83;;;10.07;;
1350;SDS011;669;50.206;9.998;2023-05-07T06:30:11;10.93;;;10.00;;
1350;SDS011;669;50.206;9.998;2023-05-07T06:32:40;11.13;;;10.03;;
1350;SDS011;669;50.206;9.998;2023-05-07T06:35:08;11.27;;;10.17;;
1350;SDS011;669;50.206;9.998;2023-05-07T06:37:36;12.43;;;11.23;;
1350;SDS011;669;50.206;9.998;2023-05-07T06:40:05;12.10;;;10.70;;
1350;SDS011;669;50.206;9.998;2023-05-07T06:42:35;11.90;;;10.70;;
1350;SDS011;669;50.206;9.998;2023-05-07T06:45:03;10.50;;;9.53;;
1350;SDS011;669;50.206;9.998;2023-05-07T06:47:33;11.47;;;10.37;;
1350;SDS011;669;50.206;9.998;2023-05-07T06:50:01;10.10;;;9.10;;
1350;SDS011;669;50.206;9.998;2023-05-07T06:52:29;9.47;;;8.50;;
1350;SDS011;669;50.206;9.998;2023-05-07T06:54:57;11.73;;;10.63;;
1350;SDS011;669;50.206;9.998;2023-05-07T06:57:24;12.30;;;10.37;;
1350;SDS011;669;50.206;9.998;2023-05-07T06:59:52;12.37;;;11.17;;
1350;SDS011;669;50.206;9.998;2023-05-07T07:02:20;11.30;;;10.20;;
1350;SDS011;669;50.206;9.998;2023-05-07T07:04:50;12.77;;;10.80;;
1350;SDS011;669;50.206;9.998;2023-05-07T07:07:18;10.60;;;9.50;;
1350;SDS011;669;50.206;9.998;2023-05-07T07:09:45;13.17;;;9.30;;
1350;SDS011;669;50.206;9.998;2023-05-07T07:12:13;13.00;;;10.27;;
1350;SDS011;669;50.206;9.998;2023-05-07T07:14:41;10.30;;;9.30;;
1350;SDS011;669;50.206;9.998;2023-05-07T07:17:09;9.70;;;8.70;;
1350;SDS011;669;50.206;9.998;2023-05-07T07:19:37;12.33;;;9.17;;
1350;SDS011;669;50.206;9.998;2023-05-07T07:22:07;12.80;;;9.60;;
1350;SDS011;669;50.206;9.998;2023-05-07T07:24:35;11.07;;;9.97;;
1350;SDS011;669;50.206;9.998;2023-05-07T07:27:02;9.43;;;8.53;;
1350;SDS011;669;50.206;9.998;2023-05-07T07:29:31;10.90;;;9.57;;
1350;SDS011;669;50.206;9.998;2023-05-07T07:31:58;10.43;;;9.43;;
1350;SDS011;669;50.206;9.998;2023-05-07T07:34:27;9.80;;;8.77;;
1350;SDS011;669;50.206;9.998;2023-05-07T07:36:54;9.90;;;9.00;;
1350;SDS011;669;50.206;9.998;2023-05-07T07:39:24;9.40;;;8.40;;
1350;SDS011;669;50.206;9.998;2023-05-07T07:41:51;10.00;;;9.10;;
1350;SDS011;669;50.206;9.998;2023-05-07T07:44:20;10.93;;;8.33;;
1350;SDS011;669;50.206;9.998;2023-05-07T07:46:47;11.60;;;10.40;;
1350;SDS011;669;50.206;9.998;2023-05-07T07:49:16;10.50;;;9.50;;
1350;SDS011;669;50.206;9.998;2023-05-07T07:51:44;8.93;;;8.03;;
1350;SDS011;669;50.206;9.998;2023-05-07T07:54:12;11.47;;;10.37;;
1350;SDS011;669;50.206;9.998;2023-05-07T07:56:41;14.07;;;9.50;;
1350;SDS011;669;50.206;9.998;2023-05-07T07:59:09;10.73;;;9.70;;
1350;SDS011;669;50.206;9.998;2023-05-07T08:01:37;10.60;;;9.60;;
1350;SDS011;669;50.206;9.998;2023-05-07T08:04:04;13.50;;;10.80;;
1350;SDS011;669;50.206;9.998;2023-05-07T08:06:32;11.20;;;10.10;;
1350;SDS011;669;50.206;9.998;2023-05-07T08:09:00;9.37;;;8.43;;
1350;SDS011;669;50.206;9.998;2023-05-07T08:11:28;10.37;;;9.30;;
1350;SDS011;669;50.206;9.998;2023-05-07T08:13:58;11.10;;;8.73;;
1350;SDS011;669;50.206;9.998;2023-05-07T08:16:26;9.70;;;8.50;;
1350;SDS011;669;50.206;9.998;2023-05-07T08:18:56;11.20;;;9.20;;
1350;SDS011;669;50.206;9.998;2023-05-07T08:21:24;9.70;;;8.80;;
1350;SDS011;669;50.206;9.998;2023-05-07T08:23:52;10.87;;;8.10;;
1350;SDS011;669;50.206;9.998;2023-05-07T08:26:20;9.47;;;8.53;;
1350;SDS011;669;50.206;9.998;2023-05-07T08:28:48;10.53;;;9.50;;
1350;SDS011;669;50.206;9.998;2023-05-07T08:31:17;14.00;;;9.50;;
1350;SDS011;669;50.206;9.998;2023-05-07T08:33:45;8.67;;;7.83;;
1350;SDS011;669;50.206;9.998;2023-05-07T08:36:13;9.80;;;8.23;;
1350;SDS011;669;50.206;9.998;2023-05-07T08:38:41;9.97;;;8.97;;
1350;SDS011;669;50.206;9.998;2023-05-07T08:41:11;9.97;;;8.97;;
1350;SDS011;669;50.206;9.998;2023-05-07T08:43:40;9.50;;;8.60;;
1350;SDS011;669;50.206;9.998;2023-05-07T08:46:09;8.90;;;8.00;;
1350;SDS011;669;50.206;9.998;2023-05-07T08:48:39;10.43;;;9.40;;
1350;SDS011;669;50.206;9.998;2023-05-07T08:51:08;8.93;;;8.10;;
1350;SDS011;669;50.206;9.998;2023-05-07T08:53:39;8.90;;;8.17;;
1350;SDS011;669;50.206;9.998;2023-05-07T08:56:08;9.50;;;8.10;;
1350;SDS011;669;50.206;9.998;2023-05-07T08:58:37;9.20;;;8.13;;
1350;SDS011;669;50.206;9.998;2023-05-07T09:01:07;9.07;;;7.47;;
1350;SDS011;669;50.206;9.998;2023-05-07T09:03:39;9.40;;;8.53;;
1350;SDS011;669;50.206;9.998;2023-05-07T09:06:07;9.33;;;8.37;;
1350;SDS011;669;50.206;9.998;2023-05-07T09:08:36;8.93;;;8.13;;
1350;SDS011;669;50.206;9.998;2023-05-07T09:11:04;11.53;;;9.80;;
1350;SDS011;669;50.206;9.998;2023-05-07T09:13:32;9.17;;;8.30;;
1350;SDS011;669;50.206;9.998;2023-05-07T09:16:09;8.77;;;7.87;;
1350;SDS011;669;50.206;9.998;2023-05-07T09:18:41;9.77;;;8.87;;
1350;SDS011;669;50.206;9.998;2023-05-07T09:21:10;9.47;;;8.57;;
1350;SDS011;669;50.206;9.998;2023-05-07T09:23:38;8.27;;;7.53;;
1350;SDS011;669;50.206;9.998;2023-05-07T09:26:07;9.27;;;8.43;;
1350;SDS011;669;50.206;9.998;2023-05-07T09:28:38;7.83;;;7.13;;
1350;SDS011;669;50.206;9.998;2023-05-07T09:31:07;9.00;;;7.30;;
1350;SDS011;669;50.206;9.998;2023-05-07T09:33:35;8.10;;;7.40;;
1350;SDS011;669;50.206;9.998;2023-05-07T09:36:05;8.53;;;7.60;;
1350;SDS011;669;50.206;9.998;2023-05-07T09:38:35;12.20;;;8.20;;
1350;SDS011;669;50.206;9.998;2023-05-07T09:41:05;8.10;;;7.13;;
1350;SDS011;669;50.206;9.998;2023-05-07T09:43:34;8.53;;;7.30;;
1350;SDS011;669;50.206;9.998;2023-05-07T09:46:03;8.63;;;7.73;;
1350;SDS011;669;50.206;9.998;2023-05-07T09:48:38;7.67;;;6.97;;
1350;SDS011;669;50.206;9.998;2023-05-07T09:51:11;7.93;;;7.17;;
1350;SDS011;669;50.206;9.998;2023-05-07T09:53:48;6.67;;;6.07;;
1350;SDS011;669;50.206;9.998;2023-05-07T09:56:19;6.70;;;6.10;;
1350;SDS011;669;50.206;9.998;2023-05-07T09:58:47;7.40;;;6.77;;
1350;SDS011;669;50.206;9.998;2023-05-07T10:01:16;8.63;;;7.73;;
1350;SDS011;669;50.206;9.998;2023-05-07T10:03:48;5.93;;;5.53;;
1350;SDS011;669;50.206;9.998;2023-05-07T10:06:20;6.97;;;6.37;;
1350;SDS011;669;50.206;9.998;2023-05-07T10:08:48;5.67;;;5.27;;
1350;SDS011;669;50.206;9.998;2023-05-07T10:11:18;6.87;;;6.37;;
1350;SDS011;669;50.206;9.998;2023-05-07T10:13:46;6.63;;;6.03;;
1350;SDS011;669;50.206;9.998;2023-05-07T10:16:15;6.80;;;6.20;;
1350;SDS011;669;50.206;9.998;2023-05-07T10:18:44;6.20;;;5.70;;
1350;SDS011;669;50.206;9.998;2023-05-07T10:21:15;6.37;;;5.77;;
1350;SDS011;669;50.206;9.998;2023-05-07T10:23:48;5.67;;;5.20;;
1350;SDS011;669;50.206;9.998;2023-05-07T10:26:18;6.53;;;6.03;;
1350;SDS011;669;50.206;9.998;2023-05-07T10:28:50;6.57;;;5.80;;
1350;SDS011;669;50.206;9.998;2023-05-07T10:31:28;5.47;;;4.97;;
1350;SDS011;669;50.206;9.998;2023-05-07T10:34:16;7.27;;;5.90;;
1350;SDS011;669;50.206;9.998;2023-05-07T10:36:47;6.10;;;5.50;;
1350;SDS011;669;50.206;9.998;2023-05-07T10:39:17;6.97;;;6.20;;
1350;SDS011;669;50.206;9.998;2023-05-07T10:41:47;6.63;;;6.07;;
1350;SDS011;669;50.206;9.998;2023-05-07T10:44:25;6.17;;;5.57;;
1350;SDS011;669;50.206;9.998;2023-05-07T10:47:04;6.97;;;6.40;;
1350;SDS011;669;50.206;9.998;2023-05-07T10:49:36;6.60;;;6.10;;
1350;SDS011;669;50.206;9.998;2023-05-07T10:52:25;6.30;;;5.80;;
1350;SDS011;669;50.206;9.998;2023-05-07T10:57:51;5.37;;;4.87;;
1350;SDS011;669;50.206;9.998;2023-05-07T11:03:10;6.57;;;5.97;;
1350;SDS011;669;50.206;9.998;2023-05-07T11:05:38;4.70;;;4.30;;
1350;SDS011;669;50.206;9.998;2023-05-07T11:08:07;6.70;;;4.70;;
1350;SDS011;669;50.206;9.998;2023-05-07T11:10:49;6.57;;;5.90;;
1350;SDS011;669;50.206;9.998;2023-05-07T11:13:18;7.07;;;6.40;;
1350;SDS011;669;50.206;9.998;2023-05-07T11:16:01;5.30;;;4.80;;
1350;SDS011;669;50.206;9.998;2023-05-07T11:18:45;6.20;;;5.70;;
1350;SDS011;669;50.206;9.998;2023-05-07T11:21:20;4.90;;;4.50;;
1350;SDS011;669;50.206;9.998;2023-05-07T11:23:59;5.13;;;4.83;;
1350;SDS011;669;50.206;9.998;2023-05-07T11:26:30;5.93;;;5.43;;
1350;SDS011;669;50.206;9.998;2023-05-07T11:29:10;5.20;;;4.80;;
1350;SDS011;669;50.206;9.998;2023-05-07T11:31:38;4.33;;;4.07;;
1350;SDS011;669;50.206;9.998;2023-05-07T11:34:06;5.00;;;4.60;;
1350;SDS011;669;50.206;9.998;2023-05-07T11:36:36;4.93;;;4.53;;
1350;SDS011;669;50.206;9.998;2023-05-07T11:39:23;5.67;;;4.83;;
1350;SDS011;669;50.206;9.998;2023-05-07T11:41:53;5.30;;;4.90;;
1350;SDS011;669;50.206;9.998;2023-05-07T11:44:21;4.60;;;3.80;;
1350;SDS011;669;50.206;9.998;2023-05-07T11:46:49;5.20;;;4.80;;
1350;SDS011;669;50.206;9.998;2023-05-07T11:49:17;4.70;;;4.30;;
1350;SDS011;669;50.206;9.998;2023-05-07T11:51:46;5.23;;;4.07;;
1350;SDS011;669;50.206;9.998;2023-05-07T11:54:17;4.70;;;4.37;;
1350;SDS011;669;50.206;9.998;2023-05-07T11:56:45;4.40;;;4.10;;
1350;SDS011;669;50.206;9.998;2023-05-07T11:59:18;4.20;;;3.90;;
1350;SDS011;669;50.206;9.998;2023-05-07T12:01:46;4.40;;;4.00;;
1350;SDS011;669;50.206;9.998;2023-05-07T12:04:18;3.90;;;3.60;;
1350;SDS011;669;50.206;9.998;2023-05-07T12:06:47;3.33;;;3.03;;
1350;SDS011;669;50.206;9.998;2023-05-07T12:09:17;4.30;;;4.00;;
1350;SDS011;669;50.206;9.998;2023-05-07T12:11:45;4.63;;;4.20;;
1350;SDS011;669;50.206;9.998;2023-05-07T12:14:14;5.03;;;4.53;;
1350;SDS011;669;50.206;9.998;2023-05-07T12:16:44;4.37;;;3.93;;
1350;SDS011;669;50.206;9.998;2023-05-07T12:19:13;3.40;;;3.20;;
1350;SDS011;669;50.206;9.998;2023-05-07T12:21:41;4.20;;;3.80;;
1350;SDS011;669;50.206;9.998;2023-05-07T12:24:09;4.50;;;4.20;;
1350;SDS011;669;50.206;9.998;2023-05-07T12:26:37;3.97;;;3.67;;
1350;SDS011;669;50.206;9.998;2023-05-07T12:29:06;4.23;;;3.83;;
1350;SDS011;669;50.206;9.998;2023-05-07T12:31:34;4.60;;;4.20;;
1350;SDS011;669;50.206;9.998;2023-05-07T12:34:04;4.20;;;3.90;;
1350;SDS011;669;50.206;9.998;2023-05-07T12:36:36;4.73;;;4.30;;
1350;SDS011;669;50.206;9.998;2023-05-07T12:39:05;3.97;;;3.50;;
1350;SDS011;669;50.206;9.998;2023-05-07T12:41:51;3.63;;;3.33;;
1350;SDS011;669;50.206;9.998;2023-05-07T12:44:21;3.83;;;3.60;;
1350;SDS011;669;50.206;9.998;2023-05-07T12:46:50;3.50;;;3.30;;
1350;SDS011;669;50.206;9.998;2023-05-07T12:49:20;3.50;;;3.30;;
1350;SDS011;669;50.206;9.998;2023-05-07T12:51:50;4.20;;;3.90;;
1350;SDS011;669;50.206;9.998;2023-05-07T12:54:27;3.60;;;3.40;;
1350;SDS011;669;50.206;9.998;2023-05-07T12:57:00;3.60;;;3.30;;
1350;SDS011;669;50.206;9.998;2023-05-07T12:59:32;3.53;;;3.20;;
1350;SDS011;669;50.206;9.998;2023-05-07T13:02:00;3.30;;;3.07;;
1350;SDS011;669;50.206;9.998;2023-05-07T13:04:30;3.93;;;3.40;;
1350;SDS011;669;50.206;9.998;2023-05-07T13:06:58;3.20;;;3.00;;
1350;SDS011;669;50.206;9.998;2023-05-07T13:09:26;2.97;;;2.77;;
1350;SDS011;669;50.206;9.998;2023-05-07T13:11:55;3.40;;;3.20;;
1350;SDS011;669;50.206;9.998;2023-05-07T13:14:26;5.10;;;3.87;;
1350;SDS011;669;50.206;9.998;2023-05-07T13:16:54;3.00;;;2.80;;
1350;SDS011;669;50.206;9.998;2023-05-07T13:19:21;3.00;;;2.80;;
1350;SDS011;669;50.206;9.998;2023-05-07T13:21:51;2.73;;;2.60;;
1350;SDS011;669;50.206;9.998;2023-05-07T13:24:19;3.30;;;3.00;;
1350;SDS011;669;50.206;9.998;2023-05-07T13:26:46;2.93;;;2.70;;
1350;SDS011;669;50.206;9.998;2023-05-07T13:29:14;2.87;;;2.67;;
1350;SDS011;669;50.206;9.998;2023-05-07T13:31:42;3.03;;;2.83;;
1350;SDS011;669;50.206;9.998;2023-05-07T13:34:12;3.00;;;2.70;;
1350;SDS011;669;50.206;9.998;2023-05-07T13:36:40;5.60;;;3.00;;
1350;SDS011;669;50.206;9.998;2023-05-07T13:39:09;2.20;;;2.10;;
1350;SDS011;669;50.206;9.998;2023-05-07T13:41:37;3.00;;;2.80;;
1350;SDS011;669;50.206;9.998;2023-05-07T13:44:05;3.70;;;3.40;;
1350;SDS011;669;50.206;9.998;2023-05-07T13:46:33;2.60;;;2.40;;
1350;SDS011;669;50.206;9.998;2023-05-07T13:49:01;3.13;;;2.70;;
1350;SDS011;669;50.206;9.998;2023-05-07T13:51:29;2.70;;;2.50;;
1350;SDS011;669;50.206;9.998;2023-05-07T13:53:57;4.50;;;2.83;;
1350;SDS011;669;50.206;9.998;2023-05-07T13:56:27;4.53;;;2.13;;
1350;SDS011;669;50.206;9.998;2023-05-07T13:58:57;2.60;;;2.40;;
1350;SDS011;669;50.206;9.998;2023-05-07T14:01:26;2.93;;;2.73;;
1350;SDS011;669;50.206;9.998;2023-05-07T14:03:55;2.73;;;1.97;;
1350;SDS011;669;50.206;9.998;2023-05-07T14:06:23;2.70;;;2.50;;
1350;SDS011;669;50.206;9.998;2023-05-07T14:08:51;2.20;;;2.10;;
1350;SDS011;669;50.206;9.998;2023-05-07T14:11:19;1.60;;;1.50;;
1350;SDS011;669;50.206;9.998;2023-05-07T14:13:49;2.50;;;2.40;;
1350;SDS011;669;50.206;9.998;2023-05-07T14:16:17;5.63;;;3.47;;
1350;SDS011;669;50.206;9.998;2023-05-07T14:18:45;2.93;;;2.70;;
1350;SDS011;669;50.206;9.998;2023-05-07T14:21:12;3.17;;;2.97;;
1350;SDS011;669;50.206;9.998;2023-05-07T14:23:40;3.60;;;3.30;;
1350;SDS011;669;50.206;9.998;2023-05-07T14:26:08;2.93;;;2.73;;
1350;SDS011;669;50.206;9.998;2023-05-07T14:28:36;2.60;;;2.40;;
1350;SDS011;669;50.206;9.998;2023-05-07T14:31:07;2.80;;;2.60;;
1350;SDS011;669;50.206;9.998;2023-05-07T14:33:36;5.60;;;2.73;;
1350;SDS011;669;50.206;9.998;2023-05-07T14:36:07;3.97;;;3.67;;
1350;SDS011;669;50.206;9.998;2023-05-07T14:38:35;3.30;;;3.10;;
1350;SDS011;669;50.206;9.998;2023-05-07T14:41:02;3.43;;;2.83;;
1350;SDS011;669;50.206;9.998;2023-05-07T14:43:31;3.30;;;3.00;;
1350;SDS011;669;50.206;9.998;2023-05-07T14:45:58;5.67;;;2.83;;
1350;SDS011;669;50.206;9.998;2023-05-07T14:48:28;3.53;;;3.33;;
1350;SDS011;669;50.206;9.998;2023-05-07T14:50:56;3.37;;;3.10;;
1350;SDS011;669;50.206;9.998;2023-05-07T14:53:24;3.27;;;3.07;;
1350;SDS011;669;50.206;9.998;2023-05-07T14:55:51;3.83;;;3.30;;
1350;SDS011;669;50.206;9.998;2023-05-07T14:58:19;2.97;;;2.77;;
1350;SDS011;669;50.206;9.998;2023-05-07T15:00:47;3.40;;;3.10;;
1350;SDS011;669;50.206;9.998;2023-05-07T15:03:16;4.00;;;2.90;;
1350;SDS011;669;50.206;9.998;2023-05-07T15:05:45;3.47;;;3.27;;
1350;SDS011;669;50.206;9.998;2023-05-07T15:08:13;3.37;;;3.03;;
1350;SDS011;669;50.206;9.998;2023-05-07T15:10:41;3.97;;;3.17;;
1350;SDS011;669;50.206;9.998;2023-05-07T15:13:09;2.80;;;2.60;;
1350;SDS011;669;50.206;9.998;2023-05-07T15:15:41;3.17;;;2.93;;
1350;SDS011;669;50.206;9.998;2023-05-07T15:18:10;2.80;;;2.60;;
1350;SDS011;669;50.206;9.998;2023-05-07T15:20:38;3.30;;;3.00;;
1350;SDS011;669;50.206;9.998;2023-05-07T15:23:08;3.00;;;2.80;;
1350;SDS011;669;50.206;9.998;2023-05-07T15:25:38;3.03;;;2.83;;
1350;SDS011;669;50.206;9.998;2023-05-07T15:28:06;3.67;;;3.37;;
1350;SDS011;669;50.206;9.998;2023-05-07T15:30:34;3.30;;;3.00;;
1350;SDS011;669;50.206;9.998;2023-05-07T15:33:03;3.37;;;2.70;;
1350;SDS011;669;50.206;9.998;2023-05-07T15:35:31;5.23;;;2.60;;
1350;SDS011;669;50.206;9.998;2023-05-07T15:37:59;5.80;;;2.90;;
1350;SDS011;669;50.206;9.998;2023-05-07T15:40:30;3.47;;;3.27;;
1350;SDS011;669;50.206;9.998;2023-05-07T15:42:59;2.80;;;2.60;;